Terminal Aerodrome Forecast
Issued by NWS Wilmington, OH

Home | Current Version | Previous Version | Text Only | Print | Product List | Glossary On
Versions: 1 2 3 4 5 6 7 8 9 10 11 12 13 14 15 16 17 18 19 20
000
FTUS41 KILN 182300 RRA
TAFDAY
TAF
KDAY 182343Z 1900/1924 08010KT P6SM SCT080 OVC200
     FM191000 09012KT P6SM FEW050 OVC100
     FM191300 10012G20KT P6SM -SHRA OVC050
     FM191600 12017G26KT 5SM -SHRA OVC025
     FM192300 17018G28KT 4SM -SHRA BR OVC018=

USA.gov is the U.S. government's official web portal to all federal, state and local government web resources and services.